Time;durP1;ratioP1;P1;durP2;ratioP2;P2;SDS_P1;SDS_P2;PMS_P1;PMS_P2;Temp;Humidity;BMP_temperature;BMP_pressure;BME280_temperature;BME280_humidity;BME280_pressure;Samples;Min_cycle;Max_cycle;Signal;HPM_P1;HPM_P2
2021/07/29 00:01:04;;;;;;;1.13;0.80;;;16.60;99.90;;;;;;5094113;28;20471;-87
2021/07/29 00:03:31;;;;;;;1.20;0.80;;;16.60;99.90;;;;;;5094339;28;20455;-87
2021/07/29 00:05:57;;;;;;;0.83;0.80;;;16.60;99.90;;;;;;5094116;28;20444;-87
2021/07/29 00:08:24;;;;;;;1.00;1.00;;;16.50;99.90;;;;;;5094022;28;20440;-87
2021/07/29 00:10:52;;;;;;;1.33;0.63;;;16.50;99.90;;;;;;5093877;28;20468;-87
2021/07/29 00:13:19;;;;;;;0.80;0.50;;;16.40;99.90;;;;;;5093864;28;20459;-87
2021/07/29 00:15:46;;;;;;;0.63;0.63;;;16.40;99.90;;;;;;5093584;28;20436;-87
2021/07/29 00:20:57;;;;;;;0.40;0.40;;;16.40;99.90;;;;;;5094237;28;20506;-87
2021/07/29 00:23:24;;;;;;;1.80;0.90;;;16.40;99.90;;;;;;5093866;28;20452;-87
2021/07/29 00:25:52;;;;;;;0.97;0.70;;;16.30;99.90;;;;;;5093783;28;20782;-87
2021/07/29 00:28:18;;;;;;;0.50;0.37;;;16.30;99.90;;;;;;5094192;28;20440;-87
2021/07/29 00:30:45;;;;;;;0.90;0.40;;;16.30;99.90;;;;;;5097291;28;20478;-87
2021/07/29 00:33:12;;;;;;;0.97;0.67;;;16.30;99.90;;;;;;5097856;28;20455;-87
2021/07/29 00:35:39;;;;;;;0.70;0.50;;;16.30;99.90;;;;;;5097355;28;20428;-87
2021/07/29 00:38:05;;;;;;;0.80;0.60;;;16.30;99.90;;;;;;5097263;28;20483;-87
2021/07/29 00:40:32;;;;;;;1.60;0.60;;;16.20;99.90;;;;;;5097432;28;20459;-87
2021/07/29 00:43:00;;;;;;;0.60;0.50;;;16.20;99.90;;;;;;5097299;28;20494;-87
2021/07/29 00:45:27;;;;;;;0.80;0.63;;;16.10;99.90;;;;;;5097507;28;20444;-87
2021/07/29 00:47:55;;;;;;;1.23;0.67;;;16.10;99.90;;;;;;5097201;28;20443;-87
2021/07/29 00:50:22;;;;;;;1.00;0.50;;;16.10;99.90;;;;;;5097372;28;20494;-87
2021/07/29 00:52:49;;;;;;;0.50;0.40;;;16.00;99.90;;;;;;5097207;28;20459;-87
2021/07/29 00:55:18;;;;;;;1.23;0.80;;;16.00;99.90;;;;;;5097289;28;20795;-86
2021/07/29 00:57:45;;;;;;;0.70;0.70;;;16.00;99.90;;;;;;5097153;28;20483;-87
2021/07/29 01:00:14;;;;;;;1.90;0.50;;;16.10;99.90;;;;;;5097185;28;20476;-87
2021/07/29 01:02:41;;;;;;;2.73;0.67;;;16.10;99.90;;;;;;5097189;28;20447;-88
2021/07/29 01:05:11;;;;;;;1.33;0.70;;;16.00;99.90;;;;;;5097261;28;20444;-87
2021/07/29 01:07:37;;;;;;;1.63;0.87;;;16.00;99.90;;;;;;5097823;28;20451;-87
2021/07/29 01:10:06;;;;;;;1.60;0.63;;;16.00;99.90;;;;;;5097139;28;20857;-87
2021/07/29 01:12:33;;;;;;;2.40;1.20;;;16.00;99.90;;;;;;5096757;28;20963;-86
2021/07/29 01:15:00;;;;;;;0.87;0.87;;;16.00;99.90;;;;;;5097092;28;20452;-87
2021/07/29 01:17:30;;;;;;;1.40;0.97;;;16.00;99.90;;;;;;5097446;28;20585;-87
2021/07/29 01:19:59;;;;;;;1.13;0.80;;;16.00;99.90;;;;;;5096940;28;20467;-87
2021/07/29 01:22:34;;;;;;;0.93;0.93;;;16.00;99.90;;;;;;5096965;28;20448;-87
2021/07/29 01:25:02;;;;;;;0.80;0.60;;;16.00;99.90;;;;;;5096905;28;20497;-87
2021/07/29 01:27:31;;;;;;;0.97;0.97;;;16.00;99.90;;;;;;5096392;28;20440;-86
2021/07/29 01:29:58;;;;;;;0.60;0.50;;;16.00;99.90;;;;;;5096877;28;20459;-87
2021/07/29 01:32:25;;;;;;;0.60;0.60;;;16.00;99.90;;;;;;5096400;28;20435;-86
2021/07/29 01:34:52;;;;;;;0.40;0.40;;;16.00;99.90;;;;;;5096687;28;20458;-87
2021/07/29 01:37:19;;;;;;;0.50;0.50;;;16.00;99.90;;;;;;5098943;28;20444;-87
2021/07/29 01:39:47;;;;;;;0.77;0.60;;;15.90;99.90;;;;;;5096513;28;20495;-87
2021/07/29 01:42:14;;;;;;;0.70;0.60;;;16.00;99.90;;;;;;5096231;28;20447;-87
2021/07/29 01:44:41;;;;;;;0.43;0.43;;;15.90;99.90;;;;;;5096262;28;20962;-87
2021/07/29 01:47:08;;;;;;;0.80;0.77;;;15.90;99.90;;;;;;5096321;28;20454;-87
2021/07/29 01:49:35;;;;;;;0.70;0.70;;;15.90;99.90;;;;;;5096167;28;20857;-88
2021/07/29 01:52:02;;;;;;;0.83;0.60;;;15.80;99.90;;;;;;5096351;28;20454;-87
2021/07/29 01:54:28;;;;;;;2.40;0.80;;;15.80;99.90;;;;;;5096652;28;20455;-87
2021/07/29 01:56:56;;;;;;;1.13;0.83;;;15.90;99.90;;;;;;5096341;28;20808;-87
2021/07/29 01:59:23;;;;;;;2.07;1.00;;;15.80;99.90;;;;;;5096075;28;20994;-87
2021/07/29 02:01:50;;;;;;;1.70;1.07;;;15.80;99.90;;;;;;5095857;28;20462;-87
2021/07/29 02:04:17;;;;;;;1.13;0.60;;;15.80;99.90;;;;;;5095806;28;20970;-87
2021/07/29 02:06:43;;;;;;;0.90;0.57;;;15.70;99.90;;;;;;5096014;28;20447;-87
2021/07/29 02:09:10;;;;;;;0.60;0.60;;;15.70;99.90;;;;;;5096009;28;20440;-87
2021/07/29 02:11:37;;;;;;;0.77;0.60;;;15.80;99.90;;;;;;5095680;28;20998;-87
2021/07/29 02:14:06;;;;;;;0.67;0.67;;;15.70;99.90;;;;;;5095878;28;20455;-86
2021/07/29 02:16:33;;;;;;;2.20;1.00;;;15.70;99.90;;;;;;5095558;28;20448;-87
2021/07/29 02:19:00;;;;;;;2.13;1.00;;;15.60;99.90;;;;;;5096540;28;20483;-87
2021/07/29 02:21:27;;;;;;;1.17;0.90;;;15.60;99.90;;;;;;5095361;28;20471;-87
2021/07/29 02:23:53;;;;;;;3.13;0.80;;;15.60;99.90;;;;;;5095689;28;20448;-87
2021/07/29 02:26:20;;;;;;;0.77;0.40;;;15.60;99.90;;;;;;5095852;28;20456;-87
2021/07/29 02:28:47;;;;;;;2.30;0.70;;;15.50;99.90;;;;;;5099669;28;20448;-87
2021/07/29 02:31:15;;;;;;;0.83;0.70;;;15.50;99.90;;;;;;5095978;28;20856;-87
2021/07/29 02:33:42;;;;;;;2.33;0.90;;;15.50;99.90;;;;;;5095235;28;20522;-87
2021/07/29 02:36:09;;;;;;;0.80;0.77;;;15.50;99.90;;;;;;5095708;28;20448;-87
2021/07/29 02:38:36;;;;;;;0.90;0.70;;;15.40;99.90;;;;;;5094987;28;20487;-87
2021/07/29 02:41:02;;;;;;;1.57;0.80;;;15.40;99.90;;;;;;5095094;28;20459;-87
2021/07/29 02:43:29;;;;;;;2.40;1.00;;;15.40;99.90;;;;;;5095047;28;20448;-88
2021/07/29 02:45:56;;;;;;;1.00;0.90;;;15.40;99.90;;;;;;5095153;28;20444;-87
2021/07/29 02:48:24;;;;;;;0.87;0.80;;;15.40;99.90;;;;;;5094877;28;20433;-87
2021/07/29 02:50:55;;;;;;;0.80;0.80;;;15.40;99.90;;;;;;5094873;28;20821;-87
2021/07/29 02:53:23;;;;;;;0.63;0.60;;;15.40;99.90;;;;;;5094906;28;20444;-86
2021/07/29 02:55:49;;;;;;;0.90;0.60;;;15.40;99.90;;;;;;5095225;28;20436;-88
2021/07/29 02:58:16;;;;;;;6.17;0.60;;;15.40;99.90;;;;;;5095773;28;20495;-87
2021/07/29 03:00:43;;;;;;;1.10;1.00;;;15.40;99.90;;;;;;5094956;28;20464;-88
2021/07/29 03:03:10;;;;;;;0.90;0.50;;;15.40;99.90;;;;;;5094957;28;20456;-88
2021/07/29 03:05:38;;;;;;;1.17;0.60;;;15.40;99.90;;;;;;5094630;28;20444;-88
2021/07/29 03:08:05;;;;;;;0.90;0.60;;;15.40;99.90;;;;;;5094671;28;20440;-88
2021/07/29 03:10:32;;;;;;;1.73;1.00;;;15.40;99.90;;;;;;5094738;28;20459;-87
2021/07/29 03:13:01;;;;;;;2.40;0.90;;;15.40;99.90;;;;;;5094638;28;20448;-87
2021/07/29 03:15:30;;;;;;;2.00;0.73;;;15.40;99.90;;;;;;5094813;28;20440;-88
2021/07/29 03:17:57;;;;;;;1.33;0.70;;;15.30;99.90;;;;;;5094796;28;20444;-87
2021/07/29 03:20:24;;;;;;;2.97;0.70;;;15.30;99.90;;;;;;5094639;28;20467;-88
2021/07/29 03:22:52;;;;;;;1.27;0.67;;;15.30;99.90;;;;;;5094584;28;20432;-87
2021/07/29 03:25:18;;;;;;;2.07;1.47;;;15.30;99.90;;;;;;5094562;28;20456;-87
2021/07/29 03:27:45;;;;;;;1.00;0.70;;;15.30;99.90;;;;;;5094700;28;20451;-87
2021/07/29 03:30:13;;;;;;;3.80;0.73;;;15.30;99.90;;;;;;5094551;28;20494;-87
2021/07/29 03:32:40;;;;;;;0.97;0.80;;;15.20;99.90;;;;;;5094402;28;20549;-87
2021/07/29 03:35:07;;;;;;;1.10;0.80;;;15.20;99.90;;;;;;5094410;28;20905;-87
2021/07/29 03:37:34;;;;;;;0.60;0.60;;;15.20;99.90;;;;;;5094037;28;20923;-87
2021/07/29 03:40:05;;;;;;;4.53;0.80;;;15.20;99.90;;;;;;5093736;28;20499;-87
2021/07/29 03:42:32;;;;;;;7.63;0.80;;;15.20;99.90;;;;;;5094281;28;20432;-87
2021/07/29 03:44:59;;;;;;;1.43;0.60;;;15.20;99.90;;;;;;5094588;28;20444;-87
2021/07/29 03:47:26;;;;;;;3.80;1.10;;;15.20;99.90;;;;;;5094099;28;20443;-87
2021/07/29 03:49:53;;;;;;;2.00;1.30;;;15.20;99.90;;;;;;5096565;28;20464;-87
2021/07/29 03:52:20;;;;;;;1.70;0.90;;;15.20;99.90;;;;;;5094535;28;20459;-88
2021/07/29 03:54:50;;;;;;;0.83;0.80;;;15.10;99.90;;;;;;5094287;28;20447;-87
2021/07/29 03:57:19;;;;;;;0.90;0.70;;;15.10;99.90;;;;;;5094190;28;20477;-87
2021/07/29 03:59:46;;;;;;;1.40;0.77;;;15.10;99.90;;;;;;5093997;28;20540;-87
2021/07/29 04:02:12;;;;;;;1.10;0.63;;;15.10;99.90;;;;;;5094109;28;20451;-87
2021/07/29 04:04:40;;;;;;;1.37;0.90;;;15.10;99.90;;;;;;5093541;28;20440;-86
2021/07/29 04:07:08;;;;;;;0.90;0.57;;;15.10;99.90;;;;;;5093830;28;20547;-87
2021/07/29 04:09:36;;;;;;;0.80;0.60;;;15.20;99.90;;;;;;5093858;28;20452;-87
2021/07/29 04:12:03;;;;;;;1.23;1.10;;;15.20;99.90;;;;;;5093716;28;20451;-87
2021/07/29 04:14:31;;;;;;;0.73;0.70;;;15.20;99.90;;;;;;5093529;28;20451;-87
2021/07/29 04:16:58;;;;;;;0.83;0.73;;;15.20;99.90;;;;;;5094013;28;20455;-87
2021/07/29 04:19:25;;;;;;;2.47;0.60;;;15.20;99.90;;;;;;5093510;28;20472;-87
2021/07/29 04:21:52;;;;;;;0.90;0.70;;;15.20;99.90;;;;;;5093780;28;20978;-87
2021/07/29 04:24:19;;;;;;;0.60;0.53;;;15.20;99.90;;;;;;5093649;28;20440;-87
2021/07/29 04:26:45;;;;;;;0.50;0.50;;;15.30;99.90;;;;;;5093924;28;20428;-87
2021/07/29 04:29:12;;;;;;;2.20;0.90;;;15.30;99.90;;;;;;5093818;28;20436;-87
2021/07/29 04:31:40;;;;;;;2.20;1.17;;;15.30;99.90;;;;;;5093797;28;20471;-87
2021/07/29 04:34:07;;;;;;;0.93;0.67;;;15.30;99.90;;;;;;5093586;28;20432;-87
2021/07/29 04:36:39;;;;;;;0.77;0.70;;;15.30;99.90;;;;;;5093293;28;20970;-87
2021/07/29 04:39:06;;;;;;;0.60;0.50;;;15.30;99.90;;;;;;5093529;28;20475;-87
2021/07/29 04:41:33;;;;;;;1.07;0.43;;;15.30;99.90;;;;;;5093187;28;20470;-87
2021/07/29 04:44:00;;;;;;;1.10;0.70;;;15.30;99.90;;;;;;5093616;28;20444;-87
2021/07/29 04:46:27;;;;;;;0.77;0.60;;;15.30;99.90;;;;;;5093700;28;20493;-87
2021/07/29 04:48:55;;;;;;;0.50;0.50;;;15.40;99.90;;;;;;5093602;28;20436;-86
2021/07/29 04:51:22;;;;;;;0.63;0.63;;;15.40;99.90;;;;;;5093563;28;20500;-87
2021/07/29 04:53:48;;;;;;;0.80;0.80;;;15.40;99.90;;;;;;5093558;28;20455;-87
2021/07/29 04:56:15;;;;;;;0.60;0.53;;;15.50;99.90;;;;;;5093638;28;20796;-87
2021/07/29 04:58:42;;;;;;;0.90;0.67;;;15.50;99.90;;;;;;5093280;28;20479;-87
2021/07/29 05:01:09;;;;;;;0.50;0.50;;;15.60;99.90;;;;;;5093284;28;20448;-87
2021/07/29 05:03:36;;;;;;;0.50;0.50;;;15.60;99.90;;;;;;5093521;28;20513;-87
2021/07/29 05:06:04;;;;;;;0.77;0.57;;;15.70;99.90;;;;;;5093237;28;20435;-87
2021/07/29 05:08:31;;;;;;;0.90;0.73;;;15.70;99.90;;;;;;5093587;28;20437;-87
2021/07/29 05:10:58;;;;;;;2.30;0.80;;;15.80;99.90;;;;;;5093198;28;20505;-87
2021/07/29 05:13:24;;;;;;;1.43;0.63;;;15.80;99.90;;;;;;5093493;28;20802;-87
2021/07/29 05:15:51;;;;;;;0.90;0.70;;;15.80;99.90;;;;;;5093911;28;20455;-87
2021/07/29 05:18:18;;;;;;;0.70;0.60;;;15.80;99.90;;;;;;5097136;28;20452;-87
2021/07/29 05:20:45;;;;;;;0.63;0.60;;;15.70;99.90;;;;;;5097058;28;20467;-87
2021/07/29 05:23:13;;;;;;;1.60;1.03;;;15.80;99.90;;;;;;5097053;28;20448;-87
2021/07/29 05:25:40;;;;;;;0.90;0.40;;;15.90;99.90;;;;;;5097096;28;20444;-87
2021/07/29 05:28:06;;;;;;;0.60;0.50;;;15.90;99.90;;;;;;5096906;28;20454;-87
2021/07/29 05:30:36;;;;;;;3.67;0.87;;;15.90;99.90;;;;;;5096615;28;20547;-87
2021/07/29 05:33:04;;;;;;;0.67;0.67;;;16.00;99.90;;;;;;5096577;28;20603;-87
2021/07/29 05:35:31;;;;;;;1.23;0.63;;;16.00;99.90;;;;;;5096545;28;20451;-86
2021/07/29 05:37:58;;;;;;;0.57;0.57;;;16.00;99.90;;;;;;5096232;28;20447;-87
2021/07/29 05:40:26;;;;;;;2.20;0.93;;;16.00;99.90;;;;;;5096648;28;20565;-86
2021/07/29 05:42:53;;;;;;;0.67;0.60;;;16.00;99.90;;;;;;5096853;28;20451;-87
2021/07/29 05:45:20;;;;;;;2.30;1.03;;;16.10;99.90;;;;;;5096550;28;20432;-87
2021/07/29 05:47:46;;;;;;;0.97;0.90;;;16.10;99.90;;;;;;5096271;28;20433;-86
2021/07/29 05:50:13;;;;;;;0.50;0.50;;;16.10;99.90;;;;;;5096873;28;20464;-86
2021/07/29 05:52:40;;;;;;;0.57;0.50;;;16.20;99.90;;;;;;5096621;28;20456;-87
2021/07/29 05:55:07;;;;;;;1.73;0.90;;;16.20;99.90;;;;;;5096841;28;20899;-87
2021/07/29 05:57:35;;;;;;;0.90;0.80;;;16.30;99.90;;;;;;5096425;28;20451;-85
2021/07/29 06:00:02;;;;;;;1.70;0.70;;;16.40;99.90;;;;;;5096154;28;20484;-86
2021/07/29 06:02:29;;;;;;;0.70;0.63;;;16.60;99.90;;;;;;5096325;28;20451;-86
2021/07/29 06:04:56;;;;;;;0.87;0.73;;;16.60;99.90;;;;;;5096223;28;20452;-86
2021/07/29 06:07:24;;;;;;;1.63;0.53;;;16.70;99.90;;;;;;5096092;28;20455;-86
2021/07/29 06:09:51;;;;;;;0.83;0.57;;;16.70;99.90;;;;;;5095959;28;20456;-82
2021/07/29 06:12:24;;;;;;;2.10;0.73;;;16.80;99.90;;;;;;5095472;28;20803;-81
2021/07/29 06:14:52;;;;;;;1.53;0.50;;;16.80;99.90;;;;;;5095190;28;20896;-81
2021/07/29 06:17:22;;;;;;;0.90;0.60;;;16.90;99.90;;;;;;5095551;28;20444;-81
2021/07/29 06:19:49;;;;;;;0.50;0.50;;;16.90;99.90;;;;;;5095055;28;21014;-81
2021/07/29 06:22:16;;;;;;;0.60;0.47;;;17.10;99.90;;;;;;5094939;28;21045;-81
2021/07/29 06:24:42;;;;;;;0.40;0.40;;;17.10;99.90;;;;;;5095073;28;20961;-81
2021/07/29 06:27:09;;;;;;;2.10;0.60;;;17.30;99.90;;;;;;5094664;28;20803;-81
2021/07/29 06:29:36;;;;;;;1.27;0.80;;;17.40;99.90;;;;;;5095127;28;20466;-81
2021/07/29 06:32:05;;;;;;;1.53;0.53;;;17.60;99.90;;;;;;5095171;28;20443;-81
2021/07/29 06:34:35;;;;;;;1.03;0.60;;;17.70;99.90;;;;;;5094975;28;20432;-81
2021/07/29 06:37:02;;;;;;;1.80;1.03;;;17.70;99.90;;;;;;5094839;28;20451;-81
2021/07/29 06:39:28;;;;;;;0.60;0.60;;;17.90;99.90;;;;;;5094490;28;20483;-81
2021/07/29 06:41:55;;;;;;;0.50;0.50;;;18.10;99.90;;;;;;5094584;28;20448;-80
2021/07/29 06:44:22;;;;;;;0.90;0.60;;;18.20;99.90;;;;;;5094805;28;20448;-82
2021/07/29 06:46:49;;;;;;;0.63;0.40;;;18.40;99.90;;;;;;5094529;28;20802;-82
2021/07/29 06:49:17;;;;;;;0.60;0.60;;;18.50;99.90;;;;;;5094476;28;20443;-82
2021/07/29 06:51:43;;;;;;;1.53;0.90;;;18.70;99.90;;;;;;5094381;28;20522;-81
2021/07/29 06:54:10;;;;;;;0.50;0.40;;;18.90;99.90;;;;;;5094577;28;20435;-81
2021/07/29 06:56:37;;;;;;;0.97;0.57;;;19.10;99.90;;;;;;5094231;28;20956;-81
2021/07/29 06:59:04;;;;;;;0.40;0.40;;;19.20;99.90;;;;;;5094595;28;20421;-81
2021/07/29 07:01:30;;;;;;;0.80;0.50;;;19.40;99.90;;;;;;5094125;28;20448;-81
2021/07/29 07:03:57;;;;;;;1.03;0.60;;;19.60;99.90;;;;;;5094399;28;20428;-82
2021/07/29 07:06:25;;;;;;;0.83;0.60;;;19.70;99.90;;;;;;5094625;28;20435;-82
2021/07/29 07:08:52;;;;;;;2.00;0.60;;;19.70;99.90;;;;;;5094393;28;20435;-81
2021/07/29 07:11:19;;;;;;;0.40;0.40;;;19.80;99.90;;;;;;5093958;28;20464;-81
2021/07/29 07:13:47;;;;;;;0.63;0.53;;;20.00;99.90;;;;;;5094183;28;20444;-81
2021/07/29 07:16:15;;;;;;;0.80;0.60;;;20.10;99.90;;;;;;5094267;28;20500;-81
2021/07/29 07:18:42;;;;;;;0.60;0.50;;;20.30;99.90;;;;;;5093985;28;20435;-81
2021/07/29 07:21:10;;;;;;;1.93;0.90;;;20.40;99.90;;;;;;5093679;28;20997;-81
2021/07/29 07:23:40;;;;;;;0.70;0.70;;;20.50;99.90;;;;;;5094127;28;20451;-83
2021/07/29 07:26:13;;;;;;;0.63;0.63;;;20.50;99.90;;;;;;5094150;28;20447;-83
2021/07/29 07:28:40;;;;;;;1.67;0.70;;;20.60;99.90;;;;;;5093925;28;20415;-83
2021/07/29 07:31:06;;;;;;;0.50;0.50;;;20.80;99.90;;;;;;5093989;28;20468;-83
2021/07/29 07:33:33;;;;;;;0.70;0.60;;;21.00;99.90;;;;;;5094282;28;20435;-80
2021/07/29 07:36:00;;;;;;;0.60;0.60;;;20.90;99.90;;;;;;5094133;28;20440;-79
2021/07/29 07:38:27;;;;;;;1.30;0.60;;;20.80;99.90;;;;;;5092719;28;20990;-80
2021/07/29 07:40:55;;;;;;;1.57;0.73;;;20.70;99.90;;;;;;5093502;28;20506;-80
2021/07/29 07:43:22;;;;;;;0.80;0.80;;;20.40;99.90;;;;;;5093857;28;20447;-80
2021/07/29 07:45:49;;;;;;;0.70;0.40;;;20.30;99.90;;;;;;5093494;28;20508;-80
2021/07/29 07:48:17;;;;;;;0.40;0.40;;;20.10;99.90;;;;;;5093699;28;20455;-80
2021/07/29 07:50:43;;;;;;;0.87;0.53;;;20.00;99.90;;;;;;5093581;28;20855;-79
2021/07/29 07:53:10;;;;;;;0.70;0.60;;;19.90;99.90;;;;;;5093615;28;20854;-80
2021/07/29 07:55:37;;;;;;;1.00;0.60;;;19.90;99.90;;;;;;5093487;28;20436;-80
2021/07/29 07:58:05;;;;;;;1.90;0.60;;;19.80;99.90;;;;;;5093646;28;20458;-80
2021/07/29 08:00:32;;;;;;;1.17;0.80;;;19.70;99.90;;;;;;5093182;28;20483;-80
2021/07/29 08:02:58;;;;;;;0.60;0.60;;;19.80;99.90;;;;;;5093269;28;20942;-79
2021/07/29 08:05:25;;;;;;;0.43;0.43;;;19.90;99.90;;;;;;5093303;28;20432;-80
2021/07/29 08:07:52;;;;;;;0.50;0.50;;;19.90;99.90;;;;;;5093532;28;20451;-80
2021/07/29 08:10:19;;;;;;;1.20;0.63;;;19.90;99.90;;;;;;5093098;28;20997;-80
2021/07/29 08:12:45;;;;;;;0.80;0.80;;;19.90;99.90;;;;;;5093455;28;20447;-80
2021/07/29 08:15:14;;;;;;;0.70;0.60;;;20.00;99.90;;;;;;5093581;28;20490;-80
2021/07/29 08:17:41;;;;;;;1.10;0.50;;;20.10;99.90;;;;;;5094093;28;20431;-80
2021/07/29 08:20:09;;;;;;;0.77;0.60;;;20.20;99.90;;;;;;5093220;28;20483;-80
2021/07/29 08:22:36;;;;;;;1.10;0.60;;;20.20;99.90;;;;;;5093339;28;20459;-80
2021/07/29 08:25:03;;;;;;;0.30;0.30;;;20.20;99.90;;;;;;5093167;28;20962;-80
2021/07/29 08:27:33;;;;;;;0.70;0.50;;;20.10;99.90;;;;;;5093267;28;20451;-80
2021/07/29 08:30:00;;;;;;;0.47;0.47;;;20.20;99.90;;;;;;5092962;28;20463;-80
2021/07/29 08:32:31;;;;;;;1.43;1.00;;;20.50;99.90;;;;;;5093065;28;20432;-81
2021/07/29 08:34:58;;;;;;;0.90;0.90;;;20.80;99.90;;;;;;5092930;28;20443;-81
2021/07/29 08:37:25;;;;;;;1.00;0.87;;;20.90;99.90;;;;;;5092887;28;20454;-80
2021/07/29 08:39:52;;;;;;;1.00;0.60;;;20.90;99.90;;;;;;5092761;28;20519;-81
2021/07/29 08:42:19;;;;;;;0.70;0.70;;;20.90;99.90;;;;;;5093310;28;20546;-80
2021/07/29 08:44:45;;;;;;;0.70;0.63;;;20.80;99.90;;;;;;5093060;28;20451;-79
2021/07/29 08:47:21;;;;;;;0.60;0.60;;;20.70;99.90;;;;;;5093120;28;20436;-79
2021/07/29 08:49:55;;;;;;;0.60;0.60;;;20.70;99.90;;;;;;5093439;28;20462;-79
2021/07/29 08:52:22;;;;;;;0.77;0.60;;;20.80;99.90;;;;;;5096974;28;20432;-79
2021/07/29 08:54:51;;;;;;;0.60;0.60;;;21.00;99.90;;;;;;5096646;28;20416;-79
2021/07/29 08:57:26;;;;;;;1.53;0.77;;;21.20;99.90;;;;;;5096842;28;20442;-79
2021/07/29 08:59:53;;;;;;;0.50;0.50;;;21.40;99.90;;;;;;5096719;28;20486;-79
2021/07/29 09:02:24;;;;;;;0.97;0.80;;;21.60;99.90;;;;;;5096568;28;20794;-80
2021/07/29 09:05:10;;;;;;;0.40;0.40;;;21.90;99.90;;;;;;5096738;28;20493;-80
2021/07/29 09:07:37;;;;;;;2.13;1.30;;;22.00;99.90;;;;;;5096398;28;20432;-84
2021/07/29 09:10:17;;;;;;;1.20;1.10;;;22.10;99.90;;;;;;5096753;28;20490;-80
2021/07/29 09:12:44;;;;;;;0.93;0.77;;;22.10;99.90;;;;;;5096627;28;20427;-79
2021/07/29 09:15:19;;;;;;;0.60;0.60;;;22.30;99.90;;;;;;5096600;28;20423;-79
2021/07/29 09:17:46;;;;;;;0.53;0.53;;;22.50;99.90;;;;;;5096511;28;20227;-79
2021/07/29 09:20:19;;;;;;;0.70;0.70;;;22.80;99.90;;;;;;5096546;28;20485;-79
2021/07/29 09:22:49;;;;;;;0.70;0.70;;;22.90;99.90;;;;;;5096642;28;20198;-79
2021/07/29 09:25:17;;;;;;;0.77;0.70;;;22.90;99.90;;;;;;5096240;28;20563;-79
2021/07/29 09:27:46;;;;;;;2.73;1.10;;;22.90;99.90;;;;;;5096326;28;20206;-79
2021/07/29 09:30:16;;;;;;;0.60;0.50;;;22.80;99.90;;;;;;5096234;28;20227;-79
2021/07/29 09:32:57;;;;;;;0.57;0.50;;;22.70;99.90;;;;;;5096231;28;20197;-80
2021/07/29 09:35:40;;;;;;;0.50;0.50;;;22.60;99.90;;;;;;5096198;28;20853;-79
2021/07/29 09:38:10;;;;;;;0.70;0.70;;;22.60;99.90;;;;;;5095733;28;20585;-79
2021/07/29 09:40:48;;;;;;;0.70;0.70;;;22.70;99.90;;;;;;5095952;28;20278;-79
2021/07/29 09:43:17;;;;;;;0.40;0.40;;;23.00;99.90;;;;;;5096051;28;20189;-79
2021/07/29 09:45:46;;;;;;;1.17;0.80;;;23.30;99.90;;;;;;5095616;28;20189;-79
2021/07/29 09:48:13;;;;;;;1.08;0.63;;;23.40;99.90;;;;;;5095931;28;20189;-79
2021/07/29 09:50:43;;;;;;;0.68;0.47;;;23.40;99.90;;;;;;5095540;28;20312;-79
2021/07/29 09:53:10;;;;;;;0.95;0.80;;;23.30;99.90;;;;;;5095510;28;20192;-79
2021/07/29 09:55:37;;;;;;;1.77;0.68;;;23.20;99.90;;;;;;5095825;28;20201;-79
2021/07/29 09:58:05;;;;;;;0.60;0.60;;;23.30;99.90;;;;;;5095438;28;20653;-80
2021/07/29 10:00:34;;;;;;;1.08;0.82;;;23.30;99.90;;;;;;5095223;28;20236;-79
2021/07/29 10:03:01;;;;;;;0.70;0.70;;;23.20;99.90;;;;;;5094840;28;20545;-79
2021/07/29 10:05:37;;;;;;;0.85;0.80;;;23.40;99.90;;;;;;5095588;28;20553;-77
2021/07/29 10:08:09;;;;;;;1.45;0.82;;;23.60;99.90;;;;;;5095560;28;20189;-81
2021/07/29 10:10:37;;;;;;;1.35;1.00;;;24.00;99.90;;;;;;5095194;28;20220;-81
2021/07/29 10:13:04;;;;;;;0.50;0.50;;;24.60;99.90;;;;;;5095209;28;20626;-81
2021/07/29 10:15:38;;;;;;;0.68;0.68;;;24.80;99.90;;;;;;5095207;28;20197;-80
2021/07/29 10:18:06;;;;;;;1.35;0.85;;;25.10;99.90;;;;;;5095011;28;20189;-78
2021/07/29 10:20:34;;;;;;;0.65;0.65;;;25.20;99.90;;;;;;5094920;28;20592;-79
2021/07/29 10:23:32;;;;;;;0.80;0.80;;;25.30;99.90;;;;;;5095303;28;20182;-79
2021/07/29 10:26:11;;;;;;;0.95;0.80;;;25.10;99.90;;;;;;5032662;28;20195;-79
2021/07/29 10:28:39;;;;;;;0.77;0.70;;;24.90;99.90;;;;;;5085600;28;20242;-81
2021/07/29 10:31:10;;;;;;;0.52;0.50;;;24.60;99.90;;;;;;5094842;28;20225;-80
2021/07/29 10:33:37;;;;;;;0.60;0.50;;;24.60;99.90;;;;;;5095563;28;20186;-80
2021/07/29 10:36:04;;;;;;;0.80;0.68;;;25.00;99.90;;;;;;5094722;28;20177;-80
2021/07/29 10:38:48;;;;;;;0.60;0.60;;;25.40;99.90;;;;;;5094661;28;20602;-80
2021/07/29 10:41:43;;;;;;;1.30;0.73;;;25.40;99.90;;;;;;5094765;28;20237;-80
2021/07/29 10:44:30;;;;;;;1.00;0.77;;;25.20;99.90;;;;;;5094734;28;20186;-79
2021/07/29 10:47:01;;;;;;;0.85;0.70;;;25.20;99.90;;;;;;5094175;28;20208;-79
2021/07/29 10:50:06;;;;;;;0.77;0.60;;;25.10;99.90;;;;;;5094441;28;20178;-79
2021/07/29 10:52:33;;;;;;;0.98;0.85;;;24.70;99.90;;;;;;5094451;28;20200;-79
2021/07/29 10:55:02;;;;;;;0.90;0.60;;;24.40;99.90;;;;;;5094555;28;20197;-80
2021/07/29 10:57:30;;;;;;;0.80;0.70;;;24.10;99.90;;;;;;5094248;28;20194;-79
2021/07/29 10:59:59;;;;;;;1.63;0.70;;;24.00;99.90;;;;;;5094233;28;20228;-80
2021/07/29 11:02:45;;;;;;;0.50;0.50;;;24.30;99.90;;;;;;5094436;28;20599;-79
2021/07/29 11:05:16;;;;;;;0.63;0.63;;;24.60;99.90;;;;;;5094358;28;20197;-80
2021/07/29 11:07:43;;;;;;;1.35;0.70;;;24.60;99.90;;;;;;5094403;28;20189;-80
2021/07/29 11:10:15;;;;;;;0.90;0.90;;;24.30;99.90;;;;;;5094191;28;20221;-80
2021/07/29 11:12:42;;;;;;;0.80;0.80;;;24.00;99.90;;;;;;5094272;28;20181;-79
2021/07/29 11:15:10;;;;;;;0.60;0.60;;;24.00;99.90;;;;;;5093992;28;20174;-79
2021/07/29 11:17:37;;;;;;;0.75;0.75;;;23.80;99.90;;;;;;5093920;28;20668;-79
2021/07/29 11:20:05;;;;;;;0.50;0.50;;;23.60;99.90;;;;;;5093774;28;20224;-79
2021/07/29 11:22:47;;;;;;;1.38;0.98;;;23.40;99.90;;;;;;5094014;28;20212;-79
2021/07/29 11:25:17;;;;;;;0.60;0.60;;;23.20;99.90;;;;;;5094085;28;20204;-79
2021/07/29 11:27:44;;;;;;;0.70;0.70;;;23.20;99.90;;;;;;5094001;28;20197;-79
2021/07/29 11:30:12;;;;;;;0.90;0.70;;;23.30;99.90;;;;;;5093862;28;20221;-79
2021/07/29 11:32:41;;;;;;;1.25;0.77;;;23.30;99.90;;;;;;5093954;28;20243;-79
2021/07/29 11:35:10;;;;;;;0.80;0.80;;;23.30;99.90;;;;;;5093641;28;20651;-79
2021/07/29 11:37:39;;;;;;;2.08;0.68;;;23.20;99.90;;;;;;5093494;28;20664;-80
2021/07/29 11:40:07;;;;;;;1.53;1.07;;;23.30;99.90;;;;;;5093656;28;20217;-79
2021/07/29 11:42:39;;;;;;;0.70;0.70;;;23.50;99.90;;;;;;5093659;28;20684;-79
2021/07/29 11:45:21;;;;;;;1.20;0.80;;;23.70;99.90;;;;;;5093746;28;20552;-79
2021/07/29 11:47:48;;;;;;;1.33;0.70;;;23.90;99.90;;;;;;5093652;28;20189;-79
2021/07/29 11:50:15;;;;;;;0.90;0.60;;;24.00;99.90;;;;;;5093335;28;20221;-79
2021/07/29 11:52:52;;;;;;;0.60;0.60;;;24.10;99.90;;;;;;5093393;28;20193;-80
2021/07/29 11:55:20;;;;;;;0.90;0.68;;;24.00;99.90;;;;;;5093599;28;20189;-79
2021/07/29 11:57:49;;;;;;;0.50;0.50;;;24.00;99.90;;;;;;5093537;28;20331;-79
2021/07/29 12:00:27;;;;;;;1.02;0.50;;;24.00;99.90;;;;;;5093490;28;20217;-79
2021/07/29 12:02:54;;;;;;;0.60;0.52;;;24.00;99.90;;;;;;5093521;28;20542;-79
2021/07/29 12:05:21;;;;;;;0.80;0.80;;;24.00;99.90;;;;;;5093175;28;20182;-79
2021/07/29 12:07:48;;;;;;;0.80;0.80;;;24.00;99.90;;;;;;5093425;28;20189;-79
2021/07/29 12:10:18;;;;;;;2.08;0.93;;;24.00;99.90;;;;;;5093200;28;20224;-79
2021/07/29 12:12:45;;;;;;;1.52;0.80;;;24.10;99.90;;;;;;5093452;28;20177;-79
2021/07/29 12:15:16;;;;;;;1.08;0.50;;;24.20;99.90;;;;;;5093369;28;20271;-79
2021/07/29 12:17:43;;;;;;;0.68;0.68;;;24.30;99.90;;;;;;5093056;28;20645;-79
2021/07/29 12:20:12;;;;;;;1.60;0.80;;;24.20;99.90;;;;;;5093283;28;20225;-79
2021/07/29 12:22:41;;;;;;;0.60;0.57;;;24.30;99.90;;;;;;5093288;28;20210;-78
2021/07/29 12:25:11;;;;;;;0.60;0.60;;;24.30;99.90;;;;;;5094350;28;20186;-79
2021/07/29 12:27:44;;;;;;;1.35;1.35;;;24.30;99.90;;;;;;5097155;28;20702;-80
2021/07/29 12:30:31;;;;;;;0.82;0.50;;;24.30;99.90;;;;;;5097294;28;20224;-79
2021/07/29 12:33:08;;;;;;;0.85;0.85;;;24.30;99.90;;;;;;5096399;28;20224;-79
2021/07/29 12:35:36;;;;;;;0.52;0.45;;;24.20;99.90;;;;;;5097034;28;20185;-79
2021/07/29 12:38:03;;;;;;;0.60;0.60;;;24.20;99.90;;;;;;5097015;28;20229;-79
2021/07/29 12:40:31;;;;;;;0.80;0.73;;;24.10;99.90;;;;;;5096877;28;20209;-79
2021/07/29 12:43:18;;;;;;;0.70;0.60;;;24.10;99.90;;;;;;5097146;28;20253;-79
2021/07/29 12:45:50;;;;;;;0.70;0.70;;;24.00;99.90;;;;;;5096771;28;20668;-79
2021/07/29 12:48:17;;;;;;;0.90;0.70;;;24.00;99.90;;;;;;5097556;28;20209;-80
2021/07/29 12:50:44;;;;;;;0.65;0.60;;;24.00;99.90;;;;;;5096817;28;20221;-79
2021/07/29 12:53:12;;;;;;;0.55;0.55;;;24.00;99.90;;;;;;5096763;28;20178;-79
2021/07/29 12:55:42;;;;;;;1.00;0.80;;;24.00;99.90;;;;;;5096931;28;20182;-79
2021/07/29 12:58:09;;;;;;;0.60;0.60;;;23.90;99.90;;;;;;5093427;28;20534;-80